sensor_id;sensor_type;location;lat;lon;timestamp;P1;P2;P0
43180;PMS7003;28798;54.950;26.362;2022-08-18T00:02:50;9.2;9.2;7.7
43180;PMS7003;28798;54.950;26.362;2022-08-18T00:08:00;9.2;9.2;7.7
43180;PMS7003;28798;54.950;26.362;2022-08-18T00:12:50;11.1;11.1;8.9
43180;PMS7003;28798;54.950;26.362;2022-08-18T00:18:02;11.1;11.1;8.9
43180;PMS7003;28798;54.950;26.362;2022-08-18T00:23:02;8.8;8.6;6.8
43180;PMS7003;28798;54.950;26.362;2022-08-18T00:27:50;8.8;8.6;6.8
43180;PMS7003;28798;54.950;26.362;2022-08-18T00:32:57;8.9;8.9;6.4
43180;PMS7003;28798;54.950;26.362;2022-08-18T00:37:50;8.9;8.9;7.3
43180;PMS7003;28798;54.950;26.362;2022-08-18T00:42:57;8.9;8.9;7.3
43180;PMS7003;28798;54.950;26.362;2022-08-18T00:47:50;11;10.4;8.3
43180;PMS7003;28798;54.950;26.362;2022-08-18T00:52:58;11.2;11.1;9.1
43180;PMS7003;28798;54.950;26.362;2022-08-18T00:58:03;11.2;11.1;9.1
43180;PMS7003;28798;54.950;26.362;2022-08-18T01:03:03;9.4;9.3;7.5
43180;PMS7003;28798;54.950;26.362;2022-08-18T01:07:50;9.4;9.3;7.5
43180;PMS7003;28798;54.950;26.362;2022-08-18T01:12:51;10.3;10;7.8
43180;PMS7003;28798;54.950;26.362;2022-08-18T01:17:50;10.4;9.9;7.8
43180;PMS7003;28798;54.950;26.362;2022-08-18T01:22:55;10.4;9.7;8.6
43180;PMS7003;28798;54.950;26.362;2022-08-18T01:27:56;12.5;12.5;9.4
43180;PMS7003;28798;54.950;26.362;2022-08-18T01:32:51;12.5;12.5;9.4
43180;PMS7003;28798;54.950;26.362;2022-08-18T01:37:51;8.8;8.7;7.6
43180;PMS7003;28798;54.950;26.362;2022-08-18T01:43:00;9.8;9.6;8.3
43180;PMS7003;28798;54.950;26.362;2022-08-18T01:47:50;9.8;9.6;8.3
43180;PMS7003;28798;54.950;26.362;2022-08-18T01:53:12;10.4;10.2;7.9
43180;PMS7003;28798;54.950;26.362;2022-08-18T01:58:02;8.4;7.9;6.8
43180;PMS7003;28798;54.950;26.362;2022-08-18T02:02:56;8.4;7.9;6.8
43180;PMS7003;28798;54.950;26.362;2022-08-18T02:08:08;9.4;8.8;7.2
43180;PMS7003;28798;54.950;26.362;2022-08-18T02:13:08;9.2;8.6;7.5
43180;PMS7003;28798;54.950;26.362;2022-08-18T02:17:50;9;8.7;7.4
43180;PMS7003;28798;54.950;26.362;2022-08-18T02:23:10;11;10.6;8.4
43180;PMS7003;28798;54.950;26.362;2022-08-18T02:28:14;11;10.6;8.4
43180;PMS7003;28798;54.950;26.362;2022-08-18T02:33:03;8.6;7.8;6.3
43180;PMS7003;28798;54.950;26.362;2022-08-18T02:37:50;8.6;7.8;6.3
43180;PMS7003;28798;54.950;26.362;2022-08-18T02:42:50;10.3;9.1;7.3
43180;PMS7003;28798;54.950;26.362;2022-08-18T02:48:00;10.3;9.1;7.3
43180;PMS7003;28798;54.950;26.362;2022-08-18T02:52:50;7.9;7.9;6.5
43180;PMS7003;28798;54.950;26.362;2022-08-18T02:57:56;7.9;7.9;6.5
43180;PMS7003;28798;54.950;26.362;2022-08-18T03:03:02;9.9;9.9;8.4
43180;PMS7003;28798;54.950;26.362;2022-08-18T03:08:02;9.9;9.9;8.4
43180;PMS7003;28798;54.950;26.362;2022-08-18T03:12:51;7;7;5.8
43180;PMS7003;28798;54.950;26.362;2022-08-18T03:18:02;7;7;5.8
43180;PMS7003;28798;54.950;26.362;2022-08-18T03:23:01;8.1;7.9;6.2
43180;PMS7003;28798;54.950;26.362;2022-08-18T03:28:04;8.1;7.9;6.2
43180;PMS7003;28798;54.950;26.362;2022-08-18T03:32:50;4.2;3.8;2.3
43180;PMS7003;28798;54.950;26.362;2022-08-18T03:38:02;10.9;10.8;8.2
43180;PMS7003;28798;54.950;26.362;2022-08-18T03:43:03;10.8;10.5;7.8
43180;PMS7003;28798;54.950;26.362;2022-08-18T03:47:50;10.8;10.5;7.8
43180;PMS7003;28798;54.950;26.362;2022-08-18T03:53:20;11.2;10.3;8
43180;PMS7003;28798;54.950;26.362;2022-08-18T03:57:57;13.8;13.3;10.5
43180;PMS7003;28798;54.950;26.362;2022-08-18T04:02:50;13.9;13.9;10.4
43180;PMS7003;28798;54.950;26.362;2022-08-18T04:08:06;13.9;13.9;10.4
43180;PMS7003;28798;54.950;26.362;2022-08-18T04:13:28;12.1;12.1;8.6
43180;PMS7003;28798;54.950;26.362;2022-08-18T04:18:08;13.4;12.6;10.9
43180;PMS7003;28798;54.950;26.362;2022-08-18T04:23:14;15.6;15.6;12.5
43180;PMS7003;28798;54.950;26.362;2022-08-18T04:28:02;15.6;15.6;12.5
43180;PMS7003;28798;54.950;26.362;2022-08-18T04:33:16;15.6;15.6;12.5
43180;PMS7003;28798;54.950;26.362;2022-08-18T04:38:02;15.1;14.3;10.8
43180;PMS7003;28798;54.950;26.362;2022-08-18T04:43:08;14.4;13.9;11.4
43180;PMS7003;28798;54.950;26.362;2022-08-18T04:48:08;15.1;14.6;12.1
43180;PMS7003;28798;54.950;26.362;2022-08-18T04:52:50;15.6;15;11.9
43180;PMS7003;28798;54.950;26.362;2022-08-18T04:57:50;15.6;15;11.9
43180;PMS7003;28798;54.950;26.362;2022-08-18T05:03:14;12.5;11.8;9.7
43180;PMS7003;28798;54.950;26.362;2022-08-18T05:07:58;10.9;10;7.9
43180;PMS7003;28798;54.950;26.362;2022-08-18T05:13:02;13.4;13.4;11
43180;PMS7003;28798;54.950;26.362;2022-08-18T05:18:02;13.4;13.4;11
43180;PMS7003;28798;54.950;26.362;2022-08-18T05:23:00;12.8;12.5;8.9
43180;PMS7003;28798;54.950;26.362;2022-08-18T05:28:08;12.8;12.8;11.1
43180;PMS7003;28798;54.950;26.362;2022-08-18T05:32:56;14.5;14.3;10.9
43180;PMS7003;28798;54.950;26.362;2022-08-18T05:38:15;11.8;11.6;9
43180;PMS7003;28798;54.950;26.362;2022-08-18T05:42:50;14.2;13.8;11.2
43180;PMS7003;28798;54.950;26.362;2022-08-18T05:47:50;18.1;17.4;13.4
43180;PMS7003;28798;54.950;26.362;2022-08-18T05:53:00;13.5;13.3;11.2
43180;PMS7003;28798;54.950;26.362;2022-08-18T05:58:05;15.2;15.2;11.8
43180;PMS7003;28798;54.950;26.362;2022-08-18T06:03:12;15.2;15.2;11.8
43180;PMS7003;28798;54.950;26.362;2022-08-18T06:07:52;16.9;16;12.6
43180;PMS7003;28798;54.950;26.362;2022-08-18T06:13:03;16;15.5;13.9
43180;PMS7003;28798;54.950;26.362;2022-08-18T06:18:00;16.3;16.3;13.6
43180;PMS7003;28798;54.950;26.362;2022-08-18T06:22:59;16.3;16.3;13.6
43180;PMS7003;28798;54.950;26.362;2022-08-18T06:27:54;16.8;16.6;13.1
43180;PMS7003;28798;54.950;26.362;2022-08-18T06:33:41;14.6;14.5;11.6
43180;PMS7003;28798;54.950;26.362;2022-08-18T06:38:02;15.9;14.9;10.8
43180;PMS7003;28798;54.950;26.362;2022-08-18T06:43:00;18.3;17.9;14
43180;PMS7003;28798;54.950;26.362;2022-08-18T06:48:11;16;15.8;12.7
43180;PMS7003;28798;54.950;26.362;2022-08-18T06:53:10;15.4;15.3;13.3
43180;PMS7003;28798;54.950;26.362;2022-08-18T06:58:20;15.4;15.3;13.3
43180;PMS7003;28798;54.950;26.362;2022-08-18T07:02:53;16.5;16.2;14.4
43180;PMS7003;28798;54.950;26.362;2022-08-18T07:08:13;16.1;15.8;12.6
43180;PMS7003;28798;54.950;26.362;2022-08-18T07:13:16;15.1;14.5;11.8
43180;PMS7003;28798;54.950;26.362;2022-08-18T07:18:08;15.1;14.5;11.8
43180;PMS7003;28798;54.950;26.362;2022-08-18T07:23:24;15.1;15;12
43180;PMS7003;28798;54.950;26.362;2022-08-18T07:27:50;14.6;14.2;10.9
43180;PMS7003;28798;54.950;26.362;2022-08-18T07:33:05;14.6;14.2;10.9
43180;PMS7003;28798;54.950;26.362;2022-08-18T07:38:01;20.4;20.4;16.4
43180;PMS7003;28798;54.950;26.362;2022-08-18T07:43:24;17.9;17.2;13.4
43180;PMS7003;28798;54.950;26.362;2022-08-18T07:48:26;12.1;12.1;9.6
43180;PMS7003;28798;54.950;26.362;2022-08-18T07:52:56;13.9;13.7;12.1
43180;PMS7003;28798;54.950;26.362;2022-08-18T07:58:00;14.7;14.7;11.4
43180;PMS7003;28798;54.950;26.362;2022-08-18T08:03:12;14.9;14.1;12.1
43180;PMS7003;28798;54.950;26.362;2022-08-18T08:08:00;13.5;13.5;11.2
43180;PMS7003;28798;54.950;26.362;2022-08-18T08:13:00;14.5;14.5;12.1
43180;PMS7003;28798;54.950;26.362;2022-08-18T08:17:55;16.3;15.8;11.9
43180;PMS7003;28798;54.950;26.362;2022-08-18T08:22:56;13;13;10.9
43180;PMS7003;28798;54.950;26.362;2022-08-18T08:27:56;12.2;11.3;9.8
43180;PMS7003;28798;54.950;26.362;2022-08-18T08:32:57;12.2;11.3;9.8
43180;PMS7003;28798;54.950;26.362;2022-08-18T08:38:37;13.7;13.6;11
43180;PMS7003;28798;54.950;26.362;2022-08-18T08:42:53;13.6;13.6;10.2
43180;PMS7003;28798;54.950;26.362;2022-08-18T08:48:05;13.6;13.6;10.2
43180;PMS7003;28798;54.950;26.362;2022-08-18T08:53:01;11.4;11.4;10.2
43180;PMS7003;28798;54.950;26.362;2022-08-18T08:57:52;11.3;11.3;9.6
43180;PMS7003;28798;54.950;26.362;2022-08-18T09:02:58;10.7;10.7;9
43180;PMS7003;28798;54.950;26.362;2022-08-18T09:08:03;10.7;10.7;9
43180;PMS7003;28798;54.950;26.362;2022-08-18T09:18:14;12.5;12.4;11.2
43180;PMS7003;28798;54.950;26.362;2022-08-18T09:23:24;12.3;11.9;10.4
43180;PMS7003;28798;54.950;26.362;2022-08-18T09:28:11;10.8;10.4;8.4
43180;PMS7003;28798;54.950;26.362;2022-08-18T09:32:54;13.7;12.4;9.9
43180;PMS7003;28798;54.950;26.362;2022-08-18T09:37:59;13.8;13.5;10.5
43180;PMS7003;28798;54.950;26.362;2022-08-18T09:43:12;13.8;13.5;10.5
43180;PMS7003;28798;54.950;26.362;2022-08-18T09:48:02;13.3;12.7;10.6
43180;PMS7003;28798;54.950;26.362;2022-08-18T09:53:00;12.3;12.3;10.4
43180;PMS7003;28798;54.950;26.362;2022-08-18T09:58:57;11.5;11.5;8.6
43180;PMS7003;28798;54.950;26.362;2022-08-18T10:13:12;8.6;8.6;7.5
43180;PMS7003;28798;54.950;26.362;2022-08-18T10:19:26;8.5;8.2;6.9
43180;PMS7003;28798;54.950;26.362;2022-08-18T10:23:00;9.1;9.1;7.7
43180;PMS7003;28798;54.950;26.362;2022-08-18T10:27:52;7.2;7.2;5.9
43180;PMS7003;28798;54.950;26.362;2022-08-18T10:37:50;7.4;7.4;5.8
43180;PMS7003;28798;54.950;26.362;2022-08-18T10:43:27;7.4;7.4;5.8
43180;PMS7003;28798;54.950;26.362;2022-08-18T10:48:07;12.5;12.2;10
43180;PMS7003;28798;54.950;26.362;2022-08-18T10:53:29;11;10.9;8.3
43180;PMS7003;28798;54.950;26.362;2022-08-18T10:57:58;9.2;9.2;7.8
43180;PMS7003;28798;54.950;26.362;2022-08-18T11:08:11;7.2;7.2;6.3
43180;PMS7003;28798;54.950;26.362;2022-08-18T11:12:55;8;8;7.3
43180;PMS7003;28798;54.950;26.362;2022-08-18T11:17:53;9.5;8.6;7.2
43180;PMS7003;28798;54.950;26.362;2022-08-18T11:23:00;9.5;8.6;7.2
43180;PMS7003;28798;54.950;26.362;2022-08-18T11:27:59;8.6;8.6;6.9
43180;PMS7003;28798;54.950;26.362;2022-08-18T11:32:58;6.1;5.8;5.4
43180;PMS7003;28798;54.950;26.362;2022-08-18T11:37:53;8.9;8.4;6.9
43180;PMS7003;28798;54.950;26.362;2022-08-18T11:42:58;7.9;7.7;6.7
43180;PMS7003;28798;54.950;26.362;2022-08-18T11:48:31;7.6;7.2;5.9
43180;PMS7003;28798;54.950;26.362;2022-08-18T11:53:11;7.2;6.9;5.8
43180;PMS7003;28798;54.950;26.362;2022-08-18T11:57:51;8.7;8.3;6.9
43180;PMS7003;28798;54.950;26.362;2022-08-18T12:07:58;8.4;8.4;6.9
43180;PMS7003;28798;54.950;26.362;2022-08-18T12:12:58;7.7;7.7;5.9
43180;PMS7003;28798;54.950;26.362;2022-08-18T12:17:50;8.2;8.2;6.9
43180;PMS7003;28798;54.950;26.362;2022-08-18T12:22:51;8.3;8.1;6.2
43180;PMS7003;28798;54.950;26.362;2022-08-18T12:28:06;8.8;8.6;7.1
43180;PMS7003;28798;54.950;26.362;2022-08-18T12:38:24;8.1;8.1;6.2
43180;PMS7003;28798;54.950;26.362;2022-08-18T12:42:50;9.2;8.8;7.2
43180;PMS7003;28798;54.950;26.362;2022-08-18T12:47:50;7.5;7.5;6.6
43180;PMS7003;28798;54.950;26.362;2022-08-18T12:52:50;7.4;7.4;6.2
43180;PMS7003;28798;54.950;26.362;2022-08-18T12:58:08;6.7;6.7;5.7
43180;PMS7003;28798;54.950;26.362;2022-08-18T13:08:00;9.1;9.1;8.1
43180;PMS7003;28798;54.950;26.362;2022-08-18T13:12:50;8.5;8.2;6.7
43180;PMS7003;28798;54.950;26.362;2022-08-18T13:17:50;8.5;8.2;6.7
43180;PMS7003;28798;54.950;26.362;2022-08-18T13:22:50;7.5;7.5;6.3
43180;PMS7003;28798;54.950;26.362;2022-08-18T13:28:22;6.3;6.3;4.7
43180;PMS7003;28798;54.950;26.362;2022-08-18T13:32:50;6;6;4.4
43180;PMS7003;28798;54.950;26.362;2022-08-18T13:38:01;6;6;4.4
43180;PMS7003;28798;54.950;26.362;2022-08-18T13:43:08;6.7;5.8;4.8
43180;PMS7003;28798;54.950;26.362;2022-08-18T13:47:50;6.7;5.8;4.8
43180;PMS7003;28798;54.950;26.362;2022-08-18T13:53:13;7.8;7.8;6.1
43180;PMS7003;28798;54.950;26.362;2022-08-18T13:57:58;8.6;8.6;6.4
43180;PMS7003;28798;54.950;26.362;2022-08-18T14:07:50;9.2;9.2;8
43180;PMS7003;28798;54.950;26.362;2022-08-18T14:12:51;9.3;9.1;7.3
43180;PMS7003;28798;54.950;26.362;2022-08-18T14:17:50;12.9;12.9;9.9
43180;PMS7003;28798;54.950;26.362;2022-08-18T14:22:51;15.7;15.6;12.2
43180;PMS7003;28798;54.950;26.362;2022-08-18T14:28:24;10.2;10.2;8.7
43180;PMS7003;28798;54.950;26.362;2022-08-18T14:37:59;11.6;11.3;9.1
43180;PMS7003;28798;54.950;26.362;2022-08-18T14:42:59;10.7;10.6;9.1
43180;PMS7003;28798;54.950;26.362;2022-08-18T14:47:50;8.6;8.4;6.6
43180;PMS7003;28798;54.950;26.362;2022-08-18T14:52:50;8.8;8.4;7.3
43180;PMS7003;28798;54.950;26.362;2022-08-18T14:57:50;6.2;6;5.9
43180;PMS7003;28798;54.950;26.362;2022-08-18T15:07:51;6;5.6;4.8
43180;PMS7003;28798;54.950;26.362;2022-08-18T15:12:50;6.5;6.3;5
43180;PMS7003;28798;54.950;26.362;2022-08-18T15:17:50;5.7;5.1;4.5
43180;PMS7003;28798;54.950;26.362;2022-08-18T15:23:01;6.2;6.2;4.9
43180;PMS7003;28798;54.950;26.362;2022-08-18T15:27:59;6.2;6.2;4.9
43180;PMS7003;28798;54.950;26.362;2022-08-18T15:32:58;5.6;5.6;4.6
43180;PMS7003;28798;54.950;26.362;2022-08-18T15:37:50;6.4;6.4;4.9
43180;PMS7003;28798;54.950;26.362;2022-08-18T15:42:52;5.5;5.1;3.7
43180;PMS7003;28798;54.950;26.362;2022-08-18T15:47:51;7.1;7.1;5.9
43180;PMS7003;28798;54.950;26.362;2022-08-18T15:52:59;9.3;8.9;7.8
43180;PMS7003;28798;54.950;26.362;2022-08-18T15:57:59;6.9;6.2;5.4
43180;PMS7003;28798;54.950;26.362;2022-08-18T16:08:00;12.1;11.5;8.8
43180;PMS7003;28798;54.950;26.362;2022-08-18T16:12:51;9.4;9.1;7.3
43180;PMS7003;28798;54.950;26.362;2022-08-18T16:17:51;10;9.8;7.7
43180;PMS7003;28798;54.950;26.362;2022-08-18T16:23:13;11.4;10.7;9.1
43180;PMS7003;28798;54.950;26.362;2022-08-18T16:28:10;12.8;12.5;10.1
43180;PMS7003;28798;54.950;26.362;2022-08-18T16:37:50;11.7;9.9;8.4
43180;PMS7003;28798;54.950;26.362;2022-08-18T16:43:12;15.5;15;11.2
43180;PMS7003;28798;54.950;26.362;2022-08-18T16:48:03;14.1;13.6;10.5
43180;PMS7003;28798;54.950;26.362;2022-08-18T16:52:50;13.8;13.8;11.6
43180;PMS7003;28798;54.950;26.362;2022-08-18T16:57:50;11.7;11.7;9.3
43180;PMS7003;28798;54.950;26.362;2022-08-18T17:02:50;11.6;11.2;8.6
43180;PMS7003;28798;54.950;26.362;2022-08-18T17:07:50;13.2;13;10.7
43180;PMS7003;28798;54.950;26.362;2022-08-18T17:12:50;14.2;14.1;11.2
43180;PMS7003;28798;54.950;26.362;2022-08-18T17:17:50;13.6;13.3;11.5
43180;PMS7003;28798;54.950;26.362;2022-08-18T17:22:58;12.3;11.9;9.8
43180;PMS7003;28798;54.950;26.362;2022-08-18T17:27:50;10.9;10.6;8.2
43180;PMS7003;28798;54.950;26.362;2022-08-18T17:37:55;9.4;8.7;6.8
43180;PMS7003;28798;54.950;26.362;2022-08-18T17:42:50;7.6;7.6;6.4
43180;PMS7003;28798;54.950;26.362;2022-08-18T17:47:54;9.3;9.3;7.2
43180;PMS7003;28798;54.950;26.362;2022-08-18T17:52:55;9.6;9.6;8.1
43180;PMS7003;28798;54.950;26.362;2022-08-18T17:58:03;9.7;9.7;8.9
43180;PMS7003;28798;54.950;26.362;2022-08-18T18:13:30;12.8;12.8;10.9
43180;PMS7003;28798;54.950;26.362;2022-08-18T18:17:50;11.5;11.5;9.4
43180;PMS7003;28798;54.950;26.362;2022-08-18T18:23:13;9.3;9.3;7.9
43180;PMS7003;28798;54.950;26.362;2022-08-18T18:27:50;9.3;9.3;7.9
43180;PMS7003;28798;54.950;26.362;2022-08-18T18:32:59;11.3;11.3;9.5
43180;PMS7003;28798;54.950;26.362;2022-08-18T18:38:03;11.3;11.3;9.5
43180;PMS7003;28798;54.950;26.362;2022-08-18T18:44:06;11.6;11.6;8.9
43180;PMS7003;28798;54.950;26.362;2022-08-18T18:48:10;11.6;11.6;8.9
43180;PMS7003;28798;54.950;26.362;2022-08-18T18:52:57;14.8;14.2;10.8
43180;PMS7003;28798;54.950;26.362;2022-08-18T19:12:52;15.7;15.3;13.6
43180;PMS7003;28798;54.950;26.362;2022-08-18T19:17:59;16.8;16.6;12.8
43180;PMS7003;28798;54.950;26.362;2022-08-18T19:22:52;16.8;16.6;12.8
43180;PMS7003;28798;54.950;26.362;2022-08-18T19:28:24;16.5;15.4;11.2
43180;PMS7003;28798;54.950;26.362;2022-08-18T19:43:05;23.5;22.5;17.6
43180;PMS7003;28798;54.950;26.362;2022-08-18T19:47:55;17.4;16.9;13.2
43180;PMS7003;28798;54.950;26.362;2022-08-18T19:53:15;17.4;16.9;13.2
43180;PMS7003;28798;54.950;26.362;2022-08-18T19:58:50;16.1;15.6;11.7
43180;PMS7003;28798;54.950;26.362;2022-08-18T20:08:47;22.2;22.2;17.1
43180;PMS7003;28798;54.950;26.362;2022-08-18T20:13:03;22.2;22.2;17.1
43180;PMS7003;28798;54.950;26.362;2022-08-18T20:18:19;22.2;22.2;17.1
43180;PMS7003;28798;54.950;26.362;2022-08-18T20:23:01;22.2;22.2;17.1
43180;PMS7003;28798;54.950;26.362;2022-08-18T20:28:19;14.9;14.3;10.3
43180;PMS7003;28798;54.950;26.362;2022-08-18T20:33:18;14.3;14.2;10.7
43180;PMS7003;28798;54.950;26.362;2022-08-18T20:38:33;14.3;14.2;10.7
43180;PMS7003;28798;54.950;26.362;2022-08-18T20:43:26;16.1;15.8;11.9
43180;PMS7003;28798;54.950;26.362;2022-08-18T20:47:55;16.1;15.8;11.9
43180;PMS7003;28798;54.950;26.362;2022-08-18T20:54:05;15.8;15.4;12.4
43180;PMS7003;28798;54.950;26.362;2022-08-18T20:58:03;15.8;15.4;12.4
43180;PMS7003;28798;54.950;26.362;2022-08-18T21:08:24;15.7;15.7;11.9
43180;PMS7003;28798;54.950;26.362;2022-08-18T21:13:11;15.7;15.7;11.9
43180;PMS7003;28798;54.950;26.362;2022-08-18T21:18:15;11.8;10.8;8.5
43180;PMS7003;28798;54.950;26.362;2022-08-18T21:23:06;11.8;10.8;8.5
43180;PMS7003;28798;54.950;26.362;2022-08-18T21:28:01;11.8;10.8;8.5
43180;PMS7003;28798;54.950;26.362;2022-08-18T21:38:01;18.6;17;14.1
43180;PMS7003;28798;54.950;26.362;2022-08-18T21:42:50;16.5;15.6;12.8
43180;PMS7003;28798;54.950;26.362;2022-08-18T21:48:03;14.9;14.4;11.6
43180;PMS7003;28798;54.950;26.362;2022-08-18T21:53:19;14.9;14.4;11.6
43180;PMS7003;28798;54.950;26.362;2022-08-18T21:57:59;14.9;14.4;11.6
43180;PMS7003;28798;54.950;26.362;2022-08-18T22:07:50;12.8;12.8;10.2
43180;PMS7003;28798;54.950;26.362;2022-08-18T22:13:25;13.7;13.2;9.6
43180;PMS7003;28798;54.950;26.362;2022-08-18T22:18:02;13.7;13.2;9.6
43180;PMS7003;28798;54.950;26.362;2022-08-18T22:23:06;13.7;13.2;9.6
43180;PMS7003;28798;54.950;26.362;2022-08-18T22:28:07;13.7;13.2;9.6
43180;PMS7003;28798;54.950;26.362;2022-08-18T22:42:51;11.4;11.3;8.6
43180;PMS7003;28798;54.950;26.362;2022-08-18T22:47:51;15.8;14.8;9.8
43180;PMS7003;28798;54.950;26.362;2022-08-18T22:53:01;12.5;12.2;9.4
43180;PMS7003;28798;54.950;26.362;2022-08-18T22:57:51;13.1;12.9;10.4
43180;PMS7003;28798;54.950;26.362;2022-08-18T23:02:51;13.1;12.9;10.4
43180;PMS7003;28798;54.950;26.362;2022-08-18T23:08:07;12.6;12.3;10
43180;PMS7003;28798;54.950;26.362;2022-08-18T23:13:23;12.6;12.3;10
43180;PMS7003;28798;54.950;26.362;2022-08-18T23:17:51;16.6;15;11.9
43180;PMS7003;28798;54.950;26.362;2022-08-18T23:22:51;16.6;15;11.9
43180;PMS7003;28798;54.950;26.362;2022-08-18T23:28:03;11.5;10.9;8.5
43180;PMS7003;28798;54.950;26.362;2022-08-18T23:43:01;8;7.8;6.6
43180;PMS7003;28798;54.950;26.362;2022-08-18T23:47:51;8;7.8;6.6
43180;PMS7003;28798;54.950;26.362;2022-08-18T23:52:55;8.6;8.4;7.1
43180;PMS7003;28798;54.950;26.362;2022-08-18T23:57:59;8.6;8.4;7.1
